Time;durP1;ratioP1;P1;durP2;ratioP2;P2;SDS_P1;SDS_P2;PMS_P1;PMS_P2;Temp;Humidity;BMP_temperature;BMP_pressure;BME280_temperature;BME280_humidity;BME280_pressure;Samples;Min_cycle;Max_cycle;Signal;HPM_P1;HPM_P2
2022/02/20 00:00:42;;;;;;;;;;;;;;;13.98;53.86;100489.84;1021442;29;694;-63
2022/02/20 00:01:32;;;;;;;;;;;;;;;13.97;53.28;100480.97;1021509;29;782;-63
2022/02/20 00:02:23;;;;;;;;;;;;;;;13.98;53.76;100492.50;1021522;29;798;-63
2022/02/20 00:03:13;;;;;;;;;;;;;;;13.97;53.27;100497.06;1021396;29;840;-62
2022/02/20 00:04:04;;;;;;;;;;;;;;;13.97;54.08;100498.88;1021357;29;1007;-63
2022/02/20 00:04:54;;;;;;;;;;;;;;;13.97;53.88;100501.56;1021467;29;751;-62
2022/02/20 00:05:44;;;;;;;;;;;;;;;13.96;53.97;100505.22;1021422;29;755;-62
2022/02/20 00:06:35;;;;;;;;;;;;;;;13.96;53.83;100508.75;1021537;29;693;-63
2022/02/20 00:07:25;;;;;;;;;;;;;;;13.96;53.89;100498.03;1021361;29;729;-63
2022/02/20 00:08:16;;;;;;;;;;;;;;;13.96;53.61;100502.53;1021480;29;698;-63
2022/02/20 00:09:06;;;;;;;;;;;;;;;13.96;53.41;100513.25;1021454;29;718;-63
2022/02/20 00:09:57;;;;;;;;;;;;;;;13.95;53.14;100504.38;1021476;29;764;-62
2022/02/20 00:10:47;;;;;;;;;;;;;;;13.95;54.05;100515.09;1021449;29;651;-62
2022/02/20 00:11:37;;;;;;;;;;;;;;;13.94;53.97;100517.88;1021362;29;834;-63
2022/02/20 00:12:28;;;;;;;;;;;;;;;13.95;53.45;100528.47;1021390;29;668;-62
2022/02/20 00:13:19;;;;;;;;;;;;;;;13.94;54.17;100529.44;1021541;29;737;-63
2022/02/20 00:14:09;;;;;;;;;;;;;;;13.96;53.56;100537.38;1021428;29;742;-63
2022/02/20 00:14:59;;;;;;;;;;;;;;;13.95;53.87;100541.88;1021404;29;1964;-62
2022/02/20 00:15:50;;;;;;;;;;;;;;;13.95;53.92;100547.22;1020383;29;1737;-63
2022/02/20 00:16:40;;;;;;;;;;;;;;;13.94;54.20;100545.53;1021415;29;690;-62
2022/02/20 00:17:31;;;;;;;;;;;;;;;13.95;54.30;100549.06;1021291;29;1985;-64
2022/02/20 00:18:21;;;;;;;;;;;;;;;13.94;53.50;100550.88;1020788;29;693;-62
2022/02/20 00:19:12;;;;;;;;;;;;;;;13.92;54.25;100552.84;1016666;29;912;-64
2022/02/20 00:20:02;;;;;;;;;;;;;;;13.92;53.73;100552.84;1017042;29;760;-63
2022/02/20 00:20:52;;;;;;;;;;;;;;;13.93;54.03;100559.91;1020947;29;702;-63
2022/02/20 00:21:43;;;;;;;;;;;;;;;13.93;53.47;100562.56;1021402;29;724;-63
2022/02/20 00:22:34;;;;;;;;;;;;;;;13.93;54.09;100556.38;1020862;29;675;-63
2022/02/20 00:23:24;;;;;;;;;;;;;;;13.92;54.40;100566.22;1020921;29;809;-63
2022/02/20 00:24:15;;;;;;;;;;;;;;;13.92;53.71;100558.19;1016608;29;857;-64
2022/02/20 00:25:05;;;;;;;;;;;;;;;13.91;53.99;100564.53;1017282;29;770;-63
2022/02/20 00:25:56;;;;;;;;;;;;;;;13.91;54.20;100564.53;1020906;29;678;-64
2022/02/20 00:26:46;;;;;;;;;;;;;;;13.92;54.03;100576.94;1021363;29;736;-64
2022/02/20 00:27:36;;;;;;;;;;;;;;;13.91;53.53;100572.56;1020877;29;663;-64
2022/02/20 00:28:27;;;;;;;;;;;;;;;13.89;53.54;100572.69;1021235;29;727;-64
2022/02/20 00:29:17;;;;;;;;;;;;;;;13.90;53.57;100576.22;1021429;29;690;-65
2022/02/20 00:30:08;;;;;;;;;;;;;;;13.89;54.33;100574.50;1021432;29;770;-64
2022/02/20 00:30:58;;;;;;;;;;;;;;;13.89;53.33;100579.88;1021435;29;698;-64
2022/02/20 00:31:48;;;;;;;;;;;;;;;13.89;53.73;100574.50;1021377;29;972;-64
2022/02/20 00:32:39;;;;;;;;;;;;;;;13.88;53.58;100579.03;1021285;29;899;-64
2022/02/20 00:33:29;;;;;;;;;;;;;;;13.89;53.30;100582.56;1021469;29;686;-65
2022/02/20 00:34:20;;;;;;;;;;;;;;;13.87;54.29;100588.03;1021255;29;1431;-65
2022/02/20 00:35:10;;;;;;;;;;;;;;;13.87;53.34;100587.19;1020600;29;1949;-65
2022/02/20 00:36:00;;;;;;;;;;;;;;;13.86;53.41;100591.69;1020372;29;709;-65
2022/02/20 00:36:51;;;;;;;;;;;;;;;13.87;54.17;100596.06;1020025;29;1882;-65
2022/02/20 00:37:41;;;;;;;;;;;;;;;13.87;53.99;100603.25;1021482;29;665;-65
2022/02/20 00:38:32;;;;;;;;;;;;;;;13.87;53.55;100613.97;1021410;29;826;-65
2022/02/20 00:39:22;;;;;;;;;;;;;;;13.85;53.47;100611.41;1020749;29;832;-65
2022/02/20 00:40:13;;;;;;;;;;;;;;;13.86;53.56;100607.75;1021382;29;779;-65
2022/02/20 00:41:03;;;;;;;;;;;;;;;13.86;53.80;100612.25;1021338;29;768;-64
2022/02/20 00:41:53;;;;;;;;;;;;;;;13.87;54.42;100616.66;1016693;29;720;-65
2022/02/20 00:42:44;;;;;;;;;;;;;;;13.87;53.75;100611.28;1017146;29;908;-65
2022/02/20 00:43:34;;;;;;;;;;;;;;;13.86;53.72;100617.63;1020877;29;737;-65
2022/02/20 00:44:25;;;;;;;;;;;;;;;13.87;53.99;100619.31;1021300;29;796;-65
2022/02/20 00:45:15;;;;;;;;;;;;;;;13.86;54.08;100613.13;1020798;29;786;-65
2022/02/20 00:46:06;;;;;;;;;;;;;;;13.87;54.10;100613.97;1021506;29;844;-65
2022/02/20 00:46:56;;;;;;;;;;;;;;;13.84;54.30;100611.53;1021307;29;800;-65
2022/02/20 00:47:47;;;;;;;;;;;;;;;13.85;54.05;100615.91;1021366;29;765;-65
2022/02/20 00:48:37;;;;;;;;;;;;;;;13.85;53.47;100615.91;1016575;29;674;-64
2022/02/20 00:49:27;;;;;;;;;;;;;;;13.86;53.58;100621.16;1017012;29;1117;-65
2022/02/20 00:50:18;;;;;;;;;;;;;;;13.86;54.18;100629.19;1021226;29;697;-65
2022/02/20 00:51:09;;;;;;;;;;;;;;;13.86;53.59;100626.50;1021954;29;740;-65
2022/02/20 00:51:59;;;;;;;;;;;;;;;13.85;54.06;100626.63;1021524;29;740;-64
2022/02/20 00:52:49;;;;;;;;;;;;;;;13.85;54.25;100626.63;1021664;29;708;-65
2022/02/20 00:53:40;;;;;;;;;;;;;;;13.83;54.41;100624.06;1022059;29;705;-64
2022/02/20 00:54:30;;;;;;;;;;;;;;;13.85;53.67;100629.31;1022080;29;801;-65
2022/02/20 00:55:21;;;;;;;;;;;;;;;13.85;54.30;100640.03;1018419;29;1109;-64
2022/02/20 00:56:11;;;;;;;;;;;;;;;13.84;53.77;100646.34;1019173;28;716;-64
2022/02/20 00:57:01;;;;;;;;;;;;;;;13.83;53.55;100650.84;1022534;28;1804;-65
2022/02/20 00:57:52;;;;;;;;;;;;;;;13.84;54.09;100649.03;1020885;29;707;-65
2022/02/20 00:58:43;;;;;;;;;;;;;;;13.83;53.91;100661.56;1021977;29;745;-64
2022/02/20 00:59:33;;;;;;;;;;;;;;;13.82;53.97;100650.97;1020850;29;902;-66
2022/02/20 01:00:23;;;;;;;;;;;;;;;13.82;53.85;100664.38;1021122;29;782;-67
2022/02/20 01:01:14;;;;;;;;;;;;;;;13.81;54.00;100662.66;1021442;29;757;-65
2022/02/20 01:02:04;;;;;;;;;;;;;;;13.81;53.70;100650.13;1022271;29;774;-65
2022/02/20 01:02:55;;;;;;;;;;;;;;;13.81;54.70;100651.97;1021826;29;996;-65
2022/02/20 01:03:45;;;;;;;;;;;;;;;13.81;53.78;100654.63;1022040;29;854;-66
2022/02/20 01:04:35;;;;;;;;;;;;;;;13.82;53.69;100661.69;1021122;29;698;-65
2022/02/20 01:05:26;;;;;;;;;;;;;;;13.81;54.14;100652.81;1020810;29;1002;-65
2022/02/20 01:06:16;;;;;;;;;;;;;;;13.82;54.67;100653.66;1022262;29;735;-66
2022/02/20 01:07:07;;;;;;;;;;;;;;;13.80;54.29;100645.75;1022153;29;744;-65
2022/02/20 01:07:57;;;;;;;;;;;;;;;13.81;54.72;100662.66;1022113;29;908;-66
2022/02/20 01:08:47;;;;;;;;;;;;;;;13.81;53.91;100651.97;1021053;29;816;-66
2022/02/20 01:09:38;;;;;;;;;;;;;;;13.80;54.26;100658.28;1020858;29;700;-66
2022/02/20 01:10:28;;;;;;;;;;;;;;;13.81;54.57;100660.00;1020990;29;719;-67
2022/02/20 01:11:19;;;;;;;;;;;;;;;13.80;54.31;100653.78;1021384;29;765;-66
2022/02/20 01:12:09;;;;;;;;;;;;;;;13.81;53.68;100673.38;1020795;29;841;-66
2022/02/20 01:13:01;;;;;;;;;;;;;;;13.81;54.34;100670.72;1022294;29;790;-65
2022/02/20 01:13:51;;;;;;;;;;;;;;;13.80;54.24;100666.31;1021764;29;651;-66
2022/02/20 01:14:41;;;;;;;;;;;;;;;13.80;54.52;100667.19;1021258;29;1575;-66
2022/02/20 01:15:32;;;;;;;;;;;;;;;13.80;54.52;100667.19;1020753;29;718;-66
2022/02/20 01:16:22;;;;;;;;;;;;;;;13.81;54.77;100670.72;1020843;29;795;-65
2022/02/20 01:17:14;;;;;;;;;;;;;;;13.79;54.78;100660.13;1020761;29;792;-64
2022/02/20 01:18:04;;;;;;;;;;;;;;;13.80;54.48;100672.53;1022006;29;912;-64
2022/02/20 01:18:55;;;;;;;;;;;;;;;13.80;54.10;100671.69;1021017;29;763;-65
2022/02/20 01:19:45;;;;;;;;;;;;;;;13.81;53.75;100678.75;1020757;29;738;-64
2022/02/20 01:20:36;;;;;;;;;;;;;;;13.79;53.79;100675.38;1020908;29;861;-65
2022/02/20 01:21:26;;;;;;;;;;;;;;;13.78;54.61;100674.50;1020866;29;836;-65
2022/02/20 01:22:16;;;;;;;;;;;;;;;13.78;54.56;100682.53;1022095;29;794;-65
2022/02/20 01:23:07;;;;;;;;;;;;;;;13.79;54.32;100680.72;1022158;29;1985;-64
2022/02/20 01:23:57;;;;;;;;;;;;;;;13.79;54.01;100680.72;1021483;29;688;-64
2022/02/20 01:24:48;;;;;;;;;;;;;;;13.78;54.83;100679.88;1020761;29;1975;-65
2022/02/20 01:25:38;;;;;;;;;;;;;;;13.78;54.42;100681.69;1020807;29;695;-64
2022/02/20 01:26:28;;;;;;;;;;;;;;;13.79;53.80;100676.19;1020874;29;858;-64
2022/02/20 01:27:19;;;;;;;;;;;;;;;13.79;54.70;100680.72;1020719;29;929;-63
2022/02/20 01:28:09;;;;;;;;;;;;;;;13.78;54.88;100679.88;1020973;29;676;-64
2022/02/20 01:29:00;;;;;;;;;;;;;;;13.78;54.68;100677.19;1020637;29;930;-63
2022/02/20 01:29:50;;;;;;;;;;;;;;;13.78;54.15;100676.34;1020852;29;847;-63
2022/02/20 01:30:41;;;;;;;;;;;;;;;13.78;54.44;100673.66;1020904;29;770;-63
2022/02/20 01:31:31;;;;;;;;;;;;;;;13.78;54.96;100676.34;1020742;29;722;-65
2022/02/20 01:32:21;;;;;;;;;;;;;;;13.76;54.59;100675.59;1020814;29;759;-63
2022/02/20 01:33:12;;;;;;;;;;;;;;;13.76;54.74;100679.13;1022179;29;847;-64
2022/02/20 01:34:02;;;;;;;;;;;;;;;13.77;54.28;100677.31;1022216;29;787;-63
2022/02/20 01:34:53;;;;;;;;;;;;;;;13.77;54.39;100677.31;1017929;29;1895;-62
2022/02/20 01:35:43;;;;;;;;;;;;;;;13.77;54.14;100677.31;1018600;29;720;-62
2022/02/20 01:36:33;;;;;;;;;;;;;;;13.76;54.12;100675.59;1018602;29;762;-62
2022/02/20 01:37:24;;;;;;;;;;;;;;;13.76;54.15;100680.97;1018396;29;748;-63
2022/02/20 01:38:15;;;;;;;;;;;;;;;13.76;54.38;100680.97;1018555;29;664;-63
2022/02/20 01:39:05;;;;;;;;;;;;;;;13.77;54.85;100682.66;1016365;29;1057;-63
2022/02/20 01:39:56;;;;;;;;;;;;;;;13.77;55.03;100688.03;1018498;29;698;-63
2022/02/20 01:40:47;;;;;;;;;;;;;;;13.76;54.51;100683.66;1018607;29;695;-63
2022/02/20 01:41:37;;;;;;;;;;;;;;;13.77;55.04;100682.66;1016291;29;880;-63
2022/02/20 01:42:28;;;;;;;;;;;;;;;13.77;54.82;100680.84;1018539;29;742;-63
2022/02/20 01:43:18;;;;;;;;;;;;;;;13.77;54.28;100682.66;1018437;29;725;-63
2022/02/20 01:44:09;;;;;;;;;;;;;;;13.76;55.09;100683.66;1018420;29;1387;-64
2022/02/20 01:44:59;;;;;;;;;;;;;;;13.76;55.14;100691.69;1018486;29;715;-64
2022/02/20 01:45:49;;;;;;;;;;;;;;;13.77;55.02;100682.66;1014331;29;1039;-64
2022/02/20 01:46:40;;;;;;;;;;;;;;;13.77;55.18;100680.00;1013763;29;769;-63
2022/02/20 01:47:30;;;;;;;;;;;;;;;13.77;55.19;100685.34;1016907;29;856;-64
2022/02/20 01:48:21;;;;;;;;;;;;;;;13.76;54.49;100691.69;1018441;29;774;-63
2022/02/20 01:49:11;;;;;;;;;;;;;;;13.77;54.21;100694.22;1019204;29;1834;-64
2022/02/20 01:50:02;;;;;;;;;;;;;;;13.75;54.70;100690.81;1021867;29;715;-63
2022/02/20 01:50:52;;;;;;;;;;;;;;;13.75;54.39;100690.81;1021807;29;794;-63
2022/02/20 01:51:42;;;;;;;;;;;;;;;13.74;54.50;100688.28;1021255;29;753;-64
2022/02/20 01:52:33;;;;;;;;;;;;;;;13.74;54.68;100691.81;1021234;29;763;-64
2022/02/20 01:53:23;;;;;;;;;;;;;;;13.74;55.24;100690.94;1022489;29;746;-64
2022/02/20 01:54:14;;;;;;;;;;;;;;;13.75;54.30;100695.31;1021086;29;1992;-65
2022/02/20 01:55:07;;;;;;;;;;;;;;;13.75;54.60;100698.00;1020497;29;1960;-67
2022/02/20 01:55:57;;;;;;;;;;;;;;;13.75;55.44;100709.56;1021838;29;948;-65
2022/02/20 01:56:48;;;;;;;;;;;;;;;13.75;54.81;100706.03;1020829;29;803;-65
2022/02/20 01:57:38;;;;;;;;;;;;;;;13.76;54.58;100707.75;1020760;29;740;-65
2022/02/20 01:58:29;;;;;;;;;;;;;;;13.75;55.17;100711.41;1020833;29;1075;-65
2022/02/20 01:59:20;;;;;;;;;;;;;;;13.74;54.75;100710.53;1020556;29;1368;-64
2022/02/20 02:00:10;;;;;;;;;;;;;;;13.75;55.05;100712.25;1021783;29;823;-65
2022/02/20 02:01:01;;;;;;;;;;;;;;;13.75;55.26;100708.72;1021198;29;878;-64
2022/02/20 02:01:51;;;;;;;;;;;;;;;13.74;54.94;100707.88;1020153;29;708;-64
2022/02/20 02:02:42;;;;;;;;;;;;;;;13.74;55.00;100709.69;1020889;29;696;-64
2022/02/20 02:03:33;;;;;;;;;;;;;;;13.73;55.04;100706.16;1020677;29;706;-65
2022/02/20 02:04:23;;;;;;;;;;;;;;;13.73;54.42;100703.47;1021737;29;839;-64
2022/02/20 02:05:13;;;;;;;;;;;;;;;13.73;54.93;100702.63;1020820;29;746;-65
2022/02/20 02:06:04;;;;;;;;;;;;;;;13.73;55.15;100703.47;1020459;29;743;-64
2022/02/20 02:06:54;;;;;;;;;;;;;;;13.74;54.39;100707.00;1020730;29;706;-64
2022/02/20 02:07:45;;;;;;;;;;;;;;;13.72;54.37;100701.78;1020783;29;700;-65
2022/02/20 02:08:35;;;;;;;;;;;;;;;13.73;55.16;100706.16;1020494;29;847;-64
2022/02/20 02:09:26;;;;;;;;;;;;;;;13.73;55.26;100702.63;1020776;29;775;-65
2022/02/20 02:10:16;;;;;;;;;;;;;;;13.73;54.99;100700.81;1020581;29;734;-65
2022/02/20 02:11:06;;;;;;;;;;;;;;;13.73;54.49;100694.59;1020642;29;896;-64
2022/02/20 02:11:57;;;;;;;;;;;;;;;13.73;54.87;100695.44;1020819;29;817;-65
2022/02/20 02:12:47;;;;;;;;;;;;;;;13.73;55.35;100699.94;1020504;29;960;-64
2022/02/20 02:13:38;;;;;;;;;;;;;;;13.72;54.57;100695.56;1020720;29;1884;-66
2022/02/20 02:14:28;;;;;;;;;;;;;;;13.71;54.74;100699.22;1021690;29;855;-64
2022/02/20 02:15:18;;;;;;;;;;;;;;;13.70;55.26;100697.50;1021829;29;781;-64
2022/02/20 02:16:09;;;;;;;;;;;;;;;13.71;54.53;100693.88;1017491;29;742;-65
2022/02/20 02:16:59;;;;;;;;;;;;;;;13.70;54.50;100695.69;1017423;29;963;-65
2022/02/20 02:17:50;;;;;;;;;;;;;;;13.71;54.82;100691.19;1018063;29;805;-65
2022/02/20 02:18:40;;;;;;;;;;;;;;;13.71;55.07;100693.88;1018059;29;896;-65
2022/02/20 02:19:31;;;;;;;;;;;;;;;13.70;55.37;100687.66;1021271;29;782;-65
2022/02/20 02:20:21;;;;;;;;;;;;;;;13.69;55.00;100679.75;1021140;29;774;-64
2022/02/20 02:21:11;;;;;;;;;;;;;;;13.69;54.63;100679.75;1021226;29;845;-65
2022/02/20 02:22:02;;;;;;;;;;;;;;;13.69;55.42;100685.94;1021762;29;760;-64
2022/02/20 02:22:52;;;;;;;;;;;;;;;13.69;54.57;100683.28;1021610;29;858;-65
2022/02/20 02:23:43;;;;;;;;;;;;;;;13.70;54.96;100676.09;1021753;29;745;-64
2022/02/20 02:24:33;;;;;;;;;;;;;;;13.70;54.67;100681.44;1021734;29;698;-64
2022/02/20 02:25:23;;;;;;;;;;;;;;;13.70;55.02;100681.44;1021684;29;697;-64
2022/02/20 02:26:15;;;;;;;;;;;;;;;13.70;54.54;100684.13;1016944;29;679;-66
2022/02/20 02:27:05;;;;;;;;;;;;;;;13.70;54.85;100686.81;1017352;29;798;-65
2022/02/20 02:27:56;;;;;;;;;;;;;;;13.69;54.90;100682.41;1021165;29;767;-64
2022/02/20 02:28:46;;;;;;;;;;;;;;;13.70;54.51;100684.13;1021547;29;713;-64
2022/02/20 02:29:37;;;;;;;;;;;;;;;13.69;55.33;100669.03;1021184;29;835;-65
2022/02/20 02:30:27;;;;;;;;;;;;;;;13.68;54.96;100670.00;1016814;29;723;-64
2022/02/20 02:31:17;;;;;;;;;;;;;;;13.68;54.99;100683.41;1017375;29;746;-65
2022/02/20 02:32:08;;;;;;;;;;;;;;;13.68;54.53;100676.22;1020967;29;732;-65
2022/02/20 02:32:58;;;;;;;;;;;;;;;13.69;54.86;100674.38;1021069;29;699;-65
2022/02/20 02:33:50;;;;;;;;;;;;;;;13.69;55.44;100674.38;1021522;29;1691;-66
2022/02/20 02:34:40;;;;;;;;;;;;;;;13.68;55.26;100667.31;1021772;29;674;-65
2022/02/20 02:35:31;;;;;;;;;;;;;;;13.68;54.55;100668.19;1020447;29;1964;-66
2022/02/20 02:36:21;;;;;;;;;;;;;;;13.67;54.75;100662.94;1020502;29;694;-65
2022/02/20 02:37:12;;;;;;;;;;;;;;;13.67;54.53;100663.78;1020775;29;700;-65
2022/02/20 02:38:04;;;;;;;;;;;;;;;13.68;55.24;100668.19;1020511;29;706;-65
2022/02/20 02:38:55;;;;;;;;;;;;;;;13.68;55.55;100662.81;1021368;29;733;-65
2022/02/20 02:39:45;;;;;;;;;;;;;;;13.69;55.32;100663.69;1021306;29;851;-65
2022/02/20 02:40:36;;;;;;;;;;;;;;;13.68;55.48;100656.63;1021633;29;777;-65
2022/02/20 02:41:26;;;;;;;;;;;;;;;13.69;55.16;100661.00;1020497;29;821;-65
2022/02/20 02:42:17;;;;;;;;;;;;;;;13.68;55.43;100659.28;1020702;29;782;-66
2022/02/20 02:43:08;;;;;;;;;;;;;;;13.68;54.96;100661.97;1021728;29;859;-66
2022/02/20 02:44:00;;;;;;;;;;;;;;;13.68;55.10;100661.97;1020330;29;923;-66
2022/02/20 02:44:50;;;;;;;;;;;;;;;13.67;55.07;100657.59;1021633;29;808;-66
2022/02/20 02:45:40;;;;;;;;;;;;;;;13.67;55.57;100661.13;1020537;29;850;-66
2022/02/20 02:46:32;;;;;;;;;;;;;;;13.67;54.91;100654.91;1020729;29;786;-65
2022/02/20 02:47:22;;;;;;;;;;;;;;;13.67;55.25;100657.59;1021637;29;710;-66
2022/02/20 02:48:13;;;;;;;;;;;;;;;13.67;55.55;100655.75;1020491;29;844;-66
2022/02/20 02:49:04;;;;;;;;;;;;;;;13.67;55.04;100662.94;1020346;29;766;-66
2022/02/20 02:49:55;;;;;;;;;;;;;;;13.66;55.20;100669.28;1021645;29;753;-65
2022/02/20 02:50:45;;;;;;;;;;;;;;;13.66;55.61;100663.91;1020416;29;774;-65
2022/02/20 02:51:35;;;;;;;;;;;;;;;13.67;55.30;100673.66;1020533;29;719;-66
2022/02/20 02:52:26;;;;;;;;;;;;;;;13.66;55.63;100672.81;1020580;29;861;-66
2022/02/20 02:53:16;;;;;;;;;;;;;;;13.65;55.12;100673.78;1020242;29;1818;-66
2022/02/20 02:54:07;;;;;;;;;;;;;;;13.66;54.83;100674.63;1020584;29;765;-67
2022/02/20 02:54:59;;;;;;;;;;;;;;;13.66;54.76;100679.97;1020446;29;1914;-67
2022/02/20 02:55:49;;;;;;;;;;;;;;;13.65;54.71;100673.78;1021679;29;726;-66
2022/02/20 02:56:40;;;;;;;;;;;;;;;13.66;55.21;100674.63;1020578;29;855;-66
2022/02/20 02:57:30;;;;;;;;;;;;;;;13.65;54.58;100672.94;1021104;29;715;-66
2022/02/20 02:58:20;;;;;;;;;;;;;;;13.65;54.89;100683.63;1020442;29;769;-66
2022/02/20 02:59:11;;;;;;;;;;;;;;;13.65;55.48;100675.59;1020534;29;1372;-66
2022/02/20 03:00:01;;;;;;;;;;;;;;;13.64;55.42;100671.22;1020458;29;757;-66
2022/02/20 03:00:52;;;;;;;;;;;;;;;13.64;55.22;100665.88;1020640;29;695;-65
2022/02/20 03:01:42;;;;;;;;;;;;;;;13.64;55.29;100673.91;1020436;29;692;-65
2022/02/20 03:02:33;;;;;;;;;;;;;;;13.64;54.95;100657.84;1020602;29;1074;-66
2022/02/20 03:03:23;;;;;;;;;;;;;;;13.63;55.25;100665.00;1021627;29;773;-65
2022/02/20 03:04:13;;;;;;;;;;;;;;;13.63;55.65;100659.66;1020446;29;832;-65
2022/02/20 03:05:04;;;;;;;;;;;;;;;13.64;55.30;100657.84;1020575;29;722;-65
2022/02/20 03:05:57;;;;;;;;;;;;;;;13.63;55.56;100659.66;1021617;29;706;-65
2022/02/20 03:06:48;;;;;;;;;;;;;;;13.63;54.99;100658.81;1021455;29;806;-65
2022/02/20 03:07:38;;;;;;;;;;;;;;;13.63;54.87;100648.09;1020347;29;696;-65
2022/02/20 03:08:29;;;;;;;;;;;;;;;13.63;54.76;100642.75;1020433;29;740;-64
2022/02/20 03:09:19;;;;;;;;;;;;;;;13.62;54.82;100643.72;1021510;29;676;-65
2022/02/20 03:10:09;;;;;;;;;;;;;;;13.62;54.71;100641.03;1020499;29;732;-64
2022/02/20 03:11:00;;;;;;;;;;;;;;;13.62;55.69;100635.69;1020601;29;761;-65
2022/02/20 03:11:51;;;;;;;;;;;;;;;13.63;55.51;100645.41;1021154;29;712;-65
2022/02/20 03:12:41;;;;;;;;;;;;;;;13.64;55.46;100636.41;1017972;29;725;-65
2022/02/20 03:13:31;;;;;;;;;;;;;;;13.63;54.73;100632.03;1017230;29;667;-65
2022/02/20 03:14:22;;;;;;;;;;;;;;;13.62;54.86;100630.31;1020584;29;902;-65
2022/02/20 03:15:12;;;;;;;;;;;;;;;13.62;54.96;100630.31;1021072;29;1950;-66
2022/02/20 03:16:03;;;;;;;;;;;;;;;13.62;55.57;100627.66;1021245;29;2075;-65
2022/02/20 03:16:53;;;;;;;;;;;;;;;13.63;55.24;100629.34;1020386;29;811;-66
2022/02/20 03:17:44;;;;;;;;;;;;;;;13.63;55.03;100632.03;1020536;29;809;-66
2022/02/20 03:18:34;;;;;;;;;;;;;;;13.63;55.24;100637.38;1020365;29;719;-65
2022/02/20 03:19:25;;;;;;;;;;;;;;;13.62;55.27;100639.22;1020342;29;797;-65
2022/02/20 03:20:15;;;;;;;;;;;;;;;13.63;55.69;100632.03;1021546;29;773;-65
2022/02/20 03:21:06;;;;;;;;;;;;;;;13.61;55.75;100634.00;1020556;29;691;-65
2022/02/20 03:21:56;;;;;;;;;;;;;;;13.62;55.18;100641.88;1020897;29;794;-64
2022/02/20 03:22:47;;;;;;;;;;;;;;;13.63;55.24;100642.75;1020474;29;632;-64
2022/02/20 03:23:37;;;;;;;;;;;;;;;13.64;55.38;100639.94;1020291;29;862;-64
2022/02/20 03:24:28;;;;;;;;;;;;;;;13.64;54.94;100660.50;1020523;29;782;-64
2022/02/20 03:25:18;;;;;;;;;;;;;;;13.63;55.25;100643.59;1020590;29;718;-64
2022/02/20 03:26:08;;;;;;;;;;;;;;;13.64;55.45;100639.09;1020328;29;713;-64
2022/02/20 03:26:59;;;;;;;;;;;;;;;13.62;55.23;100635.69;1020609;29;713;-64
2022/02/20 03:27:49;;;;;;;;;;;;;;;13.62;55.92;100635.69;1020315;29;815;-64
2022/02/20 03:28:40;;;;;;;;;;;;;;;13.62;55.98;100641.03;1020386;29;710;-64
2022/02/20 03:29:30;;;;;;;;;;;;;;;13.62;55.53;100630.31;1020846;29;736;-64
2022/02/20 03:30:20;;;;;;;;;;;;;;;13.62;55.80;100635.69;1020393;29;716;-64
2022/02/20 03:31:11;;;;;;;;;;;;;;;13.61;55.00;100639.38;1020457;29;969;-63
2022/02/20 03:32:01;;;;;;;;;;;;;;;13.61;55.53;100639.38;1020236;29;845;-64
2022/02/20 03:32:52;;;;;;;;;;;;;;;13.61;55.31;100637.53;1020435;29;765;-64
2022/02/20 03:33:42;;;;;;;;;;;;;;;13.62;55.02;100633.00;1020328;29;801;-64
2022/02/20 03:34:33;;;;;;;;;;;;;;;13.63;55.30;100634.72;1020547;29;677;-65
2022/02/20 03:35:23;;;;;;;;;;;;;;;13.62;55.60;100638.34;1020141;29;651;-64
2022/02/20 03:36:15;;;;;;;;;;;;;;;13.61;55.77;100634.00;1020324;29;873;-65
2022/02/20 03:37:05;;;;;;;;;;;;;;;13.61;55.17;100626.81;1021458;29;713;-65
2022/02/20 03:37:55;;;;;;;;;;;;;;;13.61;55.53;100634.00;1020287;29;695;-65
2022/02/20 03:38:46;;;;;;;;;;;;;;;13.61;55.98;100628.66;1021778;29;702;-64
2022/02/20 03:39:36;;;;;;;;;;;;;;;13.61;55.32;100623.31;1021821;29;732;-65
2022/02/20 03:40:27;;;;;;;;;;;;;;;13.61;55.96;100623.31;1021532;29;844;-65
2022/02/20 03:41:17;;;;;;;;;;;;;;;13.60;55.34;100624.28;1020494;29;878;-65
2022/02/20 03:42:08;;;;;;;;;;;;;;;13.60;55.96;100626.94;1021504;29;693;-65
2022/02/20 03:42:59;;;;;;;;;;;;;;;13.59;55.96;100625.25;1020307;29;630;-65
2022/02/20 03:43:49;;;;;;;;;;;;;;;13.59;55.67;100619.88;1021363;29;929;-65
2022/02/20 03:44:40;;;;;;;;;;;;;;;13.59;55.03;100628.78;1020444;29;867;-65
2022/02/20 03:45:30;;;;;;;;;;;;;;;13.59;55.60;100623.41;1020335;29;825;-65
2022/02/20 03:46:21;;;;;;;;;;;;;;;13.58;55.56;100619.03;1020357;29;817;-65
2022/02/20 03:47:11;;;;;;;;;;;;;;;13.59;55.41;100614.53;1020622;29;829;-65
2022/02/20 03:48:01;;;;;;;;;;;;;;;13.59;55.48;100619.88;1020405;29;693;-65
2022/02/20 03:48:52;;;;;;;;;;;;;;;13.60;55.98;100613.56;1020493;29;751;-65
2022/02/20 03:49:42;;;;;;;;;;;;;;;13.60;55.91;100610.88;1020418;29;772;-66
2022/02/20 03:50:33;;;;;;;;;;;;;;;13.59;56.06;100604.69;1021672;29;766;-66
2022/02/20 03:51:23;;;;;;;;;;;;;;;13.59;56.05;100609.19;1021736;29;766;-66
2022/02/20 03:52:13;;;;;;;;;;;;;;;13.58;56.01;100612.84;1021601;29;734;-64
2022/02/20 03:53:04;;;;;;;;;;;;;;;13.58;56.04;100613.69;1020353;29;853;-64
2022/02/20 03:53:54;;;;;;;;;;;;;;;13.58;55.21;100613.69;1020057;29;1692;-65
2022/02/20 03:54:45;;;;;;;;;;;;;;;13.59;55.89;100615.38;1021405;29;862;-65
2022/02/20 03:55:35;;;;;;;;;;;;;;;13.58;55.49;100613.69;1021281;29;711;-65
2022/02/20 03:56:26;;;;;;;;;;;;;;;13.58;55.51;100612.84;1021363;29;732;-65
2022/02/20 03:57:16;;;;;;;;;;;;;;;13.57;55.57;100606.63;1021285;29;749;-65
2022/02/20 03:58:06;;;;;;;;;;;;;;;13.57;55.42;100611.97;1021340;29;815;-64
2022/02/20 03:58:57;;;;;;;;;;;;;;;13.56;55.36;100604.91;1020639;29;753;-64
2022/02/20 03:59:47;;;;;;;;;;;;;;;13.59;56.00;100614.53;1021298;29;808;-65
2022/02/20 04:00:38;;;;;;;;;;;;;;;13.57;55.96;100617.34;1016610;29;872;-65
2022/02/20 04:01:28;;;;;;;;;;;;;;;13.57;55.70;100619.16;1017104;29;705;-64
2022/02/20 04:02:18;;;;;;;;;;;;;;;13.55;56.18;100612.09;1020663;29;742;-65
2022/02/20 04:03:09;;;;;;;;;;;;;;;13.57;55.78;100616.47;1021145;29;787;-65
2022/02/20 04:03:59;;;;;;;;;;;;;;;13.56;55.66;100615.63;1020583;29;630;-65
2022/02/20 04:04:50;;;;;;;;;;;;;;;13.58;55.98;100612.84;1021387;29;1178;-64
2022/02/20 04:05:40;;;;;;;;;;;;;;;13.58;55.62;100604.81;1021219;29;765;-64
2022/02/20 04:06:30;;;;;;;;;;;;;;;13.59;55.42;100606.50;1021153;29;673;-64
2022/02/20 04:07:21;;;;;;;;;;;;;;;13.57;55.35;100606.63;1021261;29;850;-64
2022/02/20 04:08:11;;;;;;;;;;;;;;;13.57;55.27;100595.91;1021239;29;711;-64
2022/02/20 04:09:02;;;;;;;;;;;;;;;13.57;56.16;100590.56;1020762;29;726;-65
2022/02/20 04:09:52;;;;;;;;;;;;;;;13.55;55.67;100585.31;1021230;29;658;-65
2022/02/20 04:10:43;;;;;;;;;;;;;;;13.56;55.23;100591.53;1021259;29;763;-64
2022/02/20 04:11:33;;;;;;;;;;;;;;;13.54;55.86;100594.34;1021221;29;791;-65
2022/02/20 04:12:25;;;;;;;;;;;;;;;13.53;55.78;100589.94;1021259;29;701;-65
2022/02/20 04:13:15;;;;;;;;;;;;;;;13.53;55.96;100586.41;1020753;29;770;-66
2022/02/20 04:14:06;;;;;;;;;;;;;;;13.54;56.22;100582.78;1020587;29;1029;-64
2022/02/20 04:14:56;;;;;;;;;;;;;;;13.53;55.72;100592.63;1021208;29;1911;-64
2022/02/20 04:15:47;;;;;;;;;;;;;;;13.54;55.45;100583.63;1020645;29;788;-64
2022/02/20 04:16:37;;;;;;;;;;;;;;;13.53;55.53;100584.59;1021102;29;2071;-64
2022/02/20 04:17:28;;;;;;;;;;;;;;;13.53;55.29;100589.09;1021168;29;737;-65
2022/02/20 04:18:19;;;;;;;;;;;;;;;13.53;55.78;100576.56;1020687;29;666;-64
2022/02/20 04:19:09;;;;;;;;;;;;;;;13.54;55.09;100580.94;1021245;29;803;-65
2022/02/20 04:19:59;;;;;;;;;;;;;;;13.54;56.11;100574.75;1021126;29;860;-64
2022/02/20 04:20:50;;;;;;;;;;;;;;;13.54;55.90;100588.13;1021224;29;815;-65
2022/02/20 04:21:40;;;;;;;;;;;;;;;13.53;56.07;100581.91;1020596;29;736;-64
2022/02/20 04:22:31;;;;;;;;;;;;;;;13.54;55.93;100580.09;1021317;29;757;-64
2022/02/20 04:23:23;;;;;;;;;;;;;;;13.53;55.83;100573.88;1020514;29;683;-63
2022/02/20 04:24:14;;;;;;;;;;;;;;;13.53;55.97;100573.03;1020688;29;808;-64
2022/02/20 04:25:04;;;;;;;;;;;;;;;13.53;55.21;100576.56;1021459;29;766;-63
2022/02/20 04:26:00;;;;;;;;;;;;;;;13.53;55.10;100576.56;1021366;29;934;-63